sensor_id;sensor_type;location;lat;lon;timestamp;P1;durP1;ratioP1;P2;durP2;ratioP2
23567;SDS011;11962;50.838;4.430;2023-02-01T00:02:19;27.50;;;8.93;;
23567;SDS011;11962;50.838;4.430;2023-02-01T00:04:45;19.33;;;8.65;;
23567;SDS011;11962;50.838;4.430;2023-02-01T00:07:11;26.05;;;9.60;;
23567;SDS011;11962;50.838;4.430;2023-02-01T00:09:36;22.67;;;9.18;;
23567;SDS011;11962;50.838;4.430;2023-02-01T00:12:02;29.45;;;9.88;;
23567;SDS011;11962;50.838;4.430;2023-02-01T00:14:28;22.75;;;9.55;;
23567;SDS011;11962;50.838;4.430;2023-02-01T00:16:54;26.20;;;9.50;;
23567;SDS011;11962;50.838;4.430;2023-02-01T00:19:20;25.95;;;9.68;;
23567;SDS011;11962;50.838;4.430;2023-02-01T00:21:46;21.10;;;9.65;;
23567;SDS011;11962;50.838;4.430;2023-02-01T00:24:12;27.10;;;10.10;;
23567;SDS011;11962;50.838;4.430;2023-02-01T00:26:39;24.40;;;9.20;;
23567;SDS011;11962;50.838;4.430;2023-02-01T00:31:35;24.73;;;9.73;;
23567;SDS011;11962;50.838;4.430;2023-02-01T00:34:01;29.17;;;10.98;;
23567;SDS011;11962;50.838;4.430;2023-02-01T00:36:27;20.70;;;10.05;;
23567;SDS011;11962;50.838;4.430;2023-02-01T00:38:54;28.02;;;10.40;;
23567;SDS011;11962;50.838;4.430;2023-02-01T00:41:20;28.90;;;10.40;;
23567;SDS011;11962;50.838;4.430;2023-02-01T00:43:47;25.80;;;10.18;;
23567;SDS011;11962;50.838;4.430;2023-02-01T00:46:13;31.85;;;9.13;;
23567;SDS011;11962;50.838;4.430;2023-02-01T00:48:41;27.35;;;10.10;;
23567;SDS011;11962;50.838;4.430;2023-02-01T00:51:07;23.02;;;8.75;;
23567;SDS011;11962;50.838;4.430;2023-02-01T00:53:38;29.38;;;9.18;;
23567;SDS011;11962;50.838;4.430;2023-02-01T00:56:05;24.02;;;9.00;;
23567;SDS011;11962;50.838;4.430;2023-02-01T00:58:31;18.23;;;7.78;;
23567;SDS011;11962;50.838;4.430;2023-02-01T01:03:31;26.45;;;8.48;;
23567;SDS011;11962;50.838;4.430;2023-02-01T01:06:02;20.33;;;8.27;;
23567;SDS011;11962;50.838;4.430;2023-02-01T01:08:33;28.67;;;7.55;;
23567;SDS011;11962;50.838;4.430;2023-02-01T01:11:03;16.83;;;7.43;;
23567;SDS011;11962;50.838;4.430;2023-02-01T01:13:35;24.98;;;7.45;;
23567;SDS011;11962;50.838;4.430;2023-02-01T01:16:01;22.45;;;7.22;;
23567;SDS011;11962;50.838;4.430;2023-02-01T01:18:31;29.00;;;6.85;;
23567;SDS011;11962;50.838;4.430;2023-02-01T01:20:58;25.33;;;6.88;;
23567;SDS011;11962;50.838;4.430;2023-02-01T01:23:25;19.38;;;6.63;;
23567;SDS011;11962;50.838;4.430;2023-02-01T01:25:51;25.38;;;7.88;;
23567;SDS011;11962;50.838;4.430;2023-02-01T01:28:17;20.13;;;6.15;;
23567;SDS011;11962;50.838;4.430;2023-02-01T01:30:42;24.02;;;6.47;;
23567;SDS011;11962;50.838;4.430;2023-02-01T01:33:08;24.88;;;6.07;;
23567;SDS011;11962;50.838;4.430;2023-02-01T01:35:34;17.73;;;6.43;;
23567;SDS011;11962;50.838;4.430;2023-02-01T01:38:00;22.00;;;5.55;;
23567;SDS011;11962;50.838;4.430;2023-02-01T01:40:27;24.70;;;6.05;;
23567;SDS011;11962;50.838;4.430;2023-02-01T01:42:54;20.67;;;5.47;;
23567;SDS011;11962;50.838;4.430;2023-02-01T01:47:52;21.08;;;5.03;;
23567;SDS011;11962;50.838;4.430;2023-02-01T01:51:00;20.25;;;5.30;;
23567;SDS011;11962;50.838;4.430;2023-02-01T01:53:22;23.80;;;5.78;;
23567;SDS011;11962;50.838;4.430;2023-02-01T01:55:52;21.73;;;4.95;;
23567;SDS011;11962;50.838;4.430;2023-02-01T01:58:21;16.63;;;4.75;;
23567;SDS011;11962;50.838;4.430;2023-02-01T02:00:50;28.88;;;5.38;;
23567;SDS011;11962;50.838;4.430;2023-02-01T02:03:18;18.42;;;4.10;;
23567;SDS011;11962;50.838;4.430;2023-02-01T02:05:50;22.27;;;4.18;;
23567;SDS011;11962;50.838;4.430;2023-02-01T02:08:19;20.13;;;4.07;;
23567;SDS011;11962;50.838;4.430;2023-02-01T02:10:47;20.13;;;4.20;;
23567;SDS011;11962;50.838;4.430;2023-02-01T02:13:37;21.17;;;4.40;;
23567;SDS011;11962;50.838;4.430;2023-02-01T02:21:35;21.55;;;4.30;;
23567;SDS011;11962;50.838;4.430;2023-02-01T02:35:30;17.25;;;4.28;;
23567;SDS011;11962;50.838;4.430;2023-02-01T02:38:18;17.70;;;3.83;;
23567;SDS011;11962;50.838;4.430;2023-02-01T02:40:53;18.35;;;3.83;;
23567;SDS011;11962;50.838;4.430;2023-02-01T02:46:29;26.67;;;4.50;;
23567;SDS011;11962;50.838;4.430;2023-02-01T02:49:29;24.98;;;4.63;;
23567;SDS011;11962;50.838;4.430;2023-02-01T02:52:34;29.92;;;5.20;;
23567;SDS011;11962;50.838;4.430;2023-02-01T02:55:25;20.75;;;4.55;;
23567;SDS011;11962;50.838;4.430;2023-02-01T02:57:52;16.88;;;3.80;;
23567;SDS011;11962;50.838;4.430;2023-02-01T03:00:38;17.27;;;3.72;;
23567;SDS011;11962;50.838;4.430;2023-02-01T03:03:23;33.03;;;4.13;;
23567;SDS011;11962;50.838;4.430;2023-02-01T03:06:12;27.17;;;4.43;;
23567;SDS011;11962;50.838;4.430;2023-02-01T03:08:41;23.08;;;4.65;;
23567;SDS011;11962;50.838;4.430;2023-02-01T03:11:10;17.63;;;4.13;;
23567;SDS011;11962;50.838;4.430;2023-02-01T03:13:44;19.08;;;4.05;;
23567;SDS011;11962;50.838;4.430;2023-02-01T03:16:23;16.27;;;3.97;;
23567;SDS011;11962;50.838;4.430;2023-02-01T03:21:24;13.98;;;4.10;;
23567;SDS011;11962;50.838;4.430;2023-02-01T03:23:54;18.17;;;3.28;;
23567;SDS011;11962;50.838;4.430;2023-02-01T03:26:23;16.70;;;4.18;;
23567;SDS011;11962;50.838;4.430;2023-02-01T03:28:53;17.75;;;3.58;;
23567;SDS011;11962;50.838;4.430;2023-02-01T03:31:22;22.70;;;4.00;;
23567;SDS011;11962;50.838;4.430;2023-02-01T03:33:48;21.75;;;3.85;;
23567;SDS011;11962;50.838;4.430;2023-02-01T03:36:16;18.30;;;3.35;;
23567;SDS011;11962;50.838;4.430;2023-02-01T03:41:43;17.52;;;3.47;;
23567;SDS011;11962;50.838;4.430;2023-02-01T03:44:23;20.08;;;3.60;;
23567;SDS011;11962;50.838;4.430;2023-02-01T03:49:36;22.55;;;3.97;;
23567;SDS011;11962;50.838;4.430;2023-02-01T03:52:06;21.83;;;4.00;;
23567;SDS011;11962;50.838;4.430;2023-02-01T03:54:35;24.02;;;3.47;;
23567;SDS011;11962;50.838;4.430;2023-02-01T03:57:04;17.63;;;3.78;;
23567;SDS011;11962;50.838;4.430;2023-02-01T03:59:33;16.33;;;4.07;;
23567;SDS011;11962;50.838;4.430;2023-02-01T04:01:59;17.15;;;3.97;;
23567;SDS011;11962;50.838;4.430;2023-02-01T04:04:25;18.40;;;3.83;;
23567;SDS011;11962;50.838;4.430;2023-02-01T04:06:51;25.88;;;4.30;;
23567;SDS011;11962;50.838;4.430;2023-02-01T04:09:17;21.52;;;4.43;;
23567;SDS011;11962;50.838;4.430;2023-02-01T04:11:42;28.25;;;4.57;;
23567;SDS011;11962;50.838;4.430;2023-02-01T04:14:08;21.13;;;4.25;;
23567;SDS011;11962;50.838;4.430;2023-02-01T04:16:34;20.80;;;4.47;;
23567;SDS011;11962;50.838;4.430;2023-02-01T04:19:00;22.05;;;4.03;;
23567;SDS011;11962;50.838;4.430;2023-02-01T04:21:38;19.27;;;4.18;;
23567;SDS011;11962;50.838;4.430;2023-02-01T04:24:04;22.08;;;3.78;;
23567;SDS011;11962;50.838;4.430;2023-02-01T04:26:30;21.67;;;4.05;;
23567;SDS011;11962;50.838;4.430;2023-02-01T04:28:56;24.98;;;4.05;;
23567;SDS011;11962;50.838;4.430;2023-02-01T04:31:22;19.15;;;3.70;;
23567;SDS011;11962;50.838;4.430;2023-02-01T04:33:54;25.33;;;3.75;;
23567;SDS011;11962;50.838;4.430;2023-02-01T04:36:22;19.35;;;3.85;;
23567;SDS011;11962;50.838;4.430;2023-02-01T04:38:49;20.58;;;4.15;;
23567;SDS011;11962;50.838;4.430;2023-02-01T04:41:18;31.25;;;4.20;;
23567;SDS011;11962;50.838;4.430;2023-02-01T04:43:48;21.25;;;4.38;;
23567;SDS011;11962;50.838;4.430;2023-02-01T04:46:15;23.25;;;4.28;;
23567;SDS011;11962;50.838;4.430;2023-02-01T04:48:41;22.83;;;3.38;;
23567;SDS011;11962;50.838;4.430;2023-02-01T04:51:07;23.90;;;3.97;;
23567;SDS011;11962;50.838;4.430;2023-02-01T04:53:33;18.15;;;4.32;;
23567;SDS011;11962;50.838;4.430;2023-02-01T04:55:59;26.83;;;4.53;;
23567;SDS011;11962;50.838;4.430;2023-02-01T04:58:25;32.40;;;4.65;;
23567;SDS011;11962;50.838;4.430;2023-02-01T05:00:50;20.92;;;3.90;;
23567;SDS011;11962;50.838;4.430;2023-02-01T05:03:17;19.38;;;3.33;;
23567;SDS011;11962;50.838;4.430;2023-02-01T05:05:43;18.13;;;3.47;;
23567;SDS011;11962;50.838;4.430;2023-02-01T05:08:09;17.27;;;3.75;;
23567;SDS011;11962;50.838;4.430;2023-02-01T05:10:35;20.20;;;4.45;;
23567;SDS011;11962;50.838;4.430;2023-02-01T05:13:01;23.10;;;4.28;;
23567;SDS011;11962;50.838;4.430;2023-02-01T05:15:45;21.83;;;4.35;;
23567;SDS011;11962;50.838;4.430;2023-02-01T05:18:11;21.23;;;3.80;;
23567;SDS011;11962;50.838;4.430;2023-02-01T05:20:37;21.23;;;4.55;;
23567;SDS011;11962;50.838;4.430;2023-02-01T05:23:03;25.00;;;3.78;;
23567;SDS011;11962;50.838;4.430;2023-02-01T05:25:29;23.52;;;3.88;;
23567;SDS011;11962;50.838;4.430;2023-02-01T05:27:54;24.15;;;4.55;;
23567;SDS011;11962;50.838;4.430;2023-02-01T05:30:20;25.73;;;4.28;;
23567;SDS011;11962;50.838;4.430;2023-02-01T05:32:49;19.33;;;4.05;;
23567;SDS011;11962;50.838;4.430;2023-02-01T05:35:20;22.55;;;3.75;;
23567;SDS011;11962;50.838;4.430;2023-02-01T05:37:46;28.17;;;4.40;;
23567;SDS011;11962;50.838;4.430;2023-02-01T05:40:13;20.23;;;3.72;;
23567;SDS011;11962;50.838;4.430;2023-02-01T05:42:39;17.80;;;3.78;;
23567;SDS011;11962;50.838;4.430;2023-02-01T05:45:05;18.33;;;3.80;;
23567;SDS011;11962;50.838;4.430;2023-02-01T05:47:32;21.27;;;4.10;;
23567;SDS011;11962;50.838;4.430;2023-02-01T05:49:58;24.58;;;4.28;;
23567;SDS011;11962;50.838;4.430;2023-02-01T05:52:24;20.42;;;3.55;;
23567;SDS011;11962;50.838;4.430;2023-02-01T05:54:49;24.02;;;3.83;;
23567;SDS011;11962;50.838;4.430;2023-02-01T05:57:15;21.08;;;3.47;;
23567;SDS011;11962;50.838;4.430;2023-02-01T05:59:41;12.88;;;3.78;;
23567;SDS011;11962;50.838;4.430;2023-02-01T06:02:09;27.30;;;4.93;;
23567;SDS011;11962;50.838;4.430;2023-02-01T06:04:36;21.75;;;3.90;;
23567;SDS011;11962;50.838;4.430;2023-02-01T06:07:02;22.40;;;4.20;;
23567;SDS011;11962;50.838;4.430;2023-02-01T06:09:28;21.90;;;4.38;;
23567;SDS011;11962;50.838;4.430;2023-02-01T06:11:54;21.35;;;3.70;;
23567;SDS011;11962;50.838;4.430;2023-02-01T06:14:20;19.77;;;3.97;;
23567;SDS011;11962;50.838;4.430;2023-02-01T06:16:46;23.60;;;3.67;;
23567;SDS011;11962;50.838;4.430;2023-02-01T06:19:12;18.38;;;3.60;;
23567;SDS011;11962;50.838;4.430;2023-02-01T06:21:38;19.95;;;4.10;;
23567;SDS011;11962;50.838;4.430;2023-02-01T06:24:03;22.00;;;4.32;;
23567;SDS011;11962;50.838;4.430;2023-02-01T06:26:31;18.05;;;3.55;;
23567;SDS011;11962;50.838;4.430;2023-02-01T06:28:56;21.25;;;4.35;;
23567;SDS011;11962;50.838;4.430;2023-02-01T06:31:22;18.65;;;3.60;;
23567;SDS011;11962;50.838;4.430;2023-02-01T06:33:48;27.60;;;4.38;;
23567;SDS011;11962;50.838;4.430;2023-02-01T06:36:15;24.05;;;4.38;;
23567;SDS011;11962;50.838;4.430;2023-02-01T06:38:43;25.13;;;4.00;;
23567;SDS011;11962;50.838;4.430;2023-02-01T06:41:09;20.25;;;3.45;;
23567;SDS011;11962;50.838;4.430;2023-02-01T06:43:36;16.65;;;3.67;;
23567;SDS011;11962;50.838;4.430;2023-02-01T06:46:05;20.67;;;4.28;;
23567;SDS011;11962;50.838;4.430;2023-02-01T06:48:36;21.95;;;4.10;;
23567;SDS011;11962;50.838;4.430;2023-02-01T06:51:01;18.88;;;4.10;;
23567;SDS011;11962;50.838;4.430;2023-02-01T06:53:27;22.08;;;4.13;;
23567;SDS011;11962;50.838;4.430;2023-02-01T06:55:54;21.85;;;3.58;;
23567;SDS011;11962;50.838;4.430;2023-02-01T06:58:27;24.00;;;4.10;;
23567;SDS011;11962;50.838;4.430;2023-02-01T07:00:56;19.52;;;3.83;;
23567;SDS011;11962;50.838;4.430;2023-02-01T07:03:22;26.83;;;3.92;;
23567;SDS011;11962;50.838;4.430;2023-02-01T07:05:48;22.92;;;4.05;;
23567;SDS011;11962;50.838;4.430;2023-02-01T07:08:14;20.67;;;3.95;;
23567;SDS011;11962;50.838;4.430;2023-02-01T07:10:40;24.45;;;4.20;;
23567;SDS011;11962;50.838;4.430;2023-02-01T07:13:05;26.88;;;4.35;;
23567;SDS011;11962;50.838;4.430;2023-02-01T07:15:32;21.00;;;4.45;;
23567;SDS011;11962;50.838;4.430;2023-02-01T07:17:57;31.95;;;4.57;;
23567;SDS011;11962;50.838;4.430;2023-02-01T07:20:23;23.52;;;3.97;;
23567;SDS011;11962;50.838;4.430;2023-02-01T07:22:54;24.88;;;4.38;;
23567;SDS011;11962;50.838;4.430;2023-02-01T07:25:21;23.75;;;4.18;;
23567;SDS011;11962;50.838;4.430;2023-02-01T07:27:47;20.95;;;4.03;;
23567;SDS011;11962;50.838;4.430;2023-02-01T07:30:12;26.85;;;5.00;;
23567;SDS011;11962;50.838;4.430;2023-02-01T07:32:38;20.35;;;4.53;;
23567;SDS011;11962;50.838;4.430;2023-02-01T07:35:04;22.65;;;4.55;;
23567;SDS011;11962;50.838;4.430;2023-02-01T07:37:48;19.92;;;4.25;;
23567;SDS011;11962;50.838;4.430;2023-02-01T07:40:14;18.27;;;4.20;;
23567;SDS011;11962;50.838;4.430;2023-02-01T07:42:40;20.60;;;4.13;;
23567;SDS011;11962;50.838;4.430;2023-02-01T07:45:06;20.85;;;3.85;;
23567;SDS011;11962;50.838;4.430;2023-02-01T07:47:32;21.15;;;4.57;;
23567;SDS011;11962;50.838;4.430;2023-02-01T07:49:57;28.70;;;4.80;;
23567;SDS011;11962;50.838;4.430;2023-02-01T07:52:32;23.83;;;5.28;;
23567;SDS011;11962;50.838;4.430;2023-02-01T07:54:58;24.98;;;4.68;;
23567;SDS011;11962;50.838;4.430;2023-02-01T07:57:24;26.70;;;4.65;;
23567;SDS011;11962;50.838;4.430;2023-02-01T07:59:49;21.33;;;4.43;;
23567;SDS011;11962;50.838;4.430;2023-02-01T08:02:33;27.05;;;4.78;;
23567;SDS011;11962;50.838;4.430;2023-02-01T08:04:59;27.73;;;4.57;;
23567;SDS011;11962;50.838;4.430;2023-02-01T08:10:47;23.15;;;4.20;;
23567;SDS011;11962;50.838;4.430;2023-02-01T08:13:13;22.88;;;4.20;;
23567;SDS011;11962;50.838;4.430;2023-02-01T08:15:39;25.63;;;5.00;;
23567;SDS011;11962;50.838;4.430;2023-02-01T08:18:05;21.23;;;4.72;;
23567;SDS011;11962;50.838;4.430;2023-02-01T08:20:31;24.88;;;4.70;;
23567;SDS011;11962;50.838;4.430;2023-02-01T08:23:07;21.05;;;4.55;;
23567;SDS011;11962;50.838;4.430;2023-02-01T08:25:34;23.52;;;4.38;;
23567;SDS011;11962;50.838;4.430;2023-02-01T08:28:01;26.80;;;4.43;;
23567;SDS011;11962;50.838;4.430;2023-02-01T08:30:27;20.30;;;3.75;;
23567;SDS011;11962;50.838;4.430;2023-02-01T08:32:53;20.83;;;3.63;;
23567;SDS011;11962;50.838;4.430;2023-02-01T08:35:19;18.92;;;4.22;;
23567;SDS011;11962;50.838;4.430;2023-02-01T08:37:44;28.65;;;5.63;;
23567;SDS011;11962;50.838;4.430;2023-02-01T08:40:10;20.75;;;4.75;;
23567;SDS011;11962;50.838;4.430;2023-02-01T08:42:36;20.40;;;4.28;;
23567;SDS011;11962;50.838;4.430;2023-02-01T08:45:27;28.13;;;4.82;;
23567;SDS011;11962;50.838;4.430;2023-02-01T08:47:55;22.67;;;4.75;;
23567;SDS011;11962;50.838;4.430;2023-02-01T08:50:22;21.85;;;4.63;;
23567;SDS011;11962;50.838;4.430;2023-02-01T08:53:04;23.08;;;4.40;;
23567;SDS011;11962;50.838;4.430;2023-02-01T08:55:30;18.00;;;3.70;;
23567;SDS011;11962;50.838;4.430;2023-02-01T08:57:56;25.45;;;5.10;;
23567;SDS011;11962;50.838;4.430;2023-02-01T09:00:21;26.92;;;4.88;;
23567;SDS011;11962;50.838;4.430;2023-02-01T09:02:48;18.65;;;4.50;;
23567;SDS011;11962;50.838;4.430;2023-02-01T09:05:14;21.08;;;4.95;;
23567;SDS011;11962;50.838;4.430;2023-02-01T09:07:41;29.05;;;5.05;;
23567;SDS011;11962;50.838;4.430;2023-02-01T09:10:07;24.05;;;4.18;;
23567;SDS011;11962;50.838;4.430;2023-02-01T09:12:34;21.60;;;4.47;;
23567;SDS011;11962;50.838;4.430;2023-02-01T09:15:00;29.48;;;4.65;;
23567;SDS011;11962;50.838;4.430;2023-02-01T09:17:27;23.55;;;4.43;;
23567;SDS011;11962;50.838;4.430;2023-02-01T09:19:54;23.67;;;4.40;;
23567;SDS011;11962;50.838;4.430;2023-02-01T09:22:20;22.20;;;4.75;;
23567;SDS011;11962;50.838;4.430;2023-02-01T09:24:46;27.15;;;5.00;;
23567;SDS011;11962;50.838;4.430;2023-02-01T09:27:12;20.40;;;4.45;;
23567;SDS011;11962;50.838;4.430;2023-02-01T09:29:37;21.95;;;4.15;;
23567;SDS011;11962;50.838;4.430;2023-02-01T09:32:03;26.92;;;4.78;;
23567;SDS011;11962;50.838;4.430;2023-02-01T09:34:30;25.48;;;4.72;;
23567;SDS011;11962;50.838;4.430;2023-02-01T09:36:56;21.48;;;4.43;;
23567;SDS011;11962;50.838;4.430;2023-02-01T09:45:14;22.42;;;3.58;;
23567;SDS011;11962;50.838;4.430;2023-02-01T09:47:55;16.85;;;3.60;;
23567;SDS011;11962;50.838;4.430;2023-02-01T09:50:33;16.63;;;4.15;;
23567;SDS011;11962;50.838;4.430;2023-02-01T09:56:06;17.67;;;3.90;;
23567;SDS011;11962;50.838;4.430;2023-02-01T10:01:11;17.30;;;4.05;;
23567;SDS011;11962;50.838;4.430;2023-02-01T10:03:46;15.98;;;3.90;;
23567;SDS011;11962;50.838;4.430;2023-02-01T10:26:59;15.07;;;3.47;;
23567;SDS011;11962;50.838;4.430;2023-02-01T10:29:36;19.35;;;4.13;;
23567;SDS011;11962;50.838;4.430;2023-02-01T10:32:12;16.02;;;4.50;;
23567;SDS011;11962;50.838;4.430;2023-02-01T10:34:41;13.25;;;3.10;;
23567;SDS011;11962;50.838;4.430;2023-02-01T10:37:27;14.48;;;3.70;;
23567;SDS011;11962;50.838;4.430;2023-02-01T10:40:11;14.52;;;3.83;;
23567;SDS011;11962;50.838;4.430;2023-02-01T10:45:04;17.58;;;3.35;;
23567;SDS011;11962;50.838;4.430;2023-02-01T10:47:31;12.75;;;3.05;;
23567;SDS011;11962;50.838;4.430;2023-02-01T10:50:17;12.57;;;3.35;;
23567;SDS011;11962;50.838;4.430;2023-02-01T10:52:57;10.68;;;3.17;;
23567;SDS011;11962;50.838;4.430;2023-02-01T10:58:31;12.63;;;3.78;;
23567;SDS011;11962;50.838;4.430;2023-02-01T11:01:01;13.52;;;3.60;;
23567;SDS011;11962;50.838;4.430;2023-02-01T11:06:11;10.77;;;2.97;;
23567;SDS011;11962;50.838;4.430;2023-02-01T11:08:45;11.73;;;3.00;;
23567;SDS011;11962;50.838;4.430;2023-02-01T11:11:13;16.30;;;3.40;;
23567;SDS011;11962;50.838;4.430;2023-02-01T11:13:40;11.80;;;3.05;;
23567;SDS011;11962;50.838;4.430;2023-02-01T11:16:06;13.65;;;3.00;;
23567;SDS011;11962;50.838;4.430;2023-02-01T11:18:37;13.70;;;3.38;;
23567;SDS011;11962;50.838;4.430;2023-02-01T11:21:07;13.10;;;3.30;;
23567;SDS011;11962;50.838;4.430;2023-02-01T11:23:40;13.38;;;2.72;;
23567;SDS011;11962;50.838;4.430;2023-02-01T11:26:10;14.63;;;3.20;;
23567;SDS011;11962;50.838;4.430;2023-02-01T11:28:37;17.00;;;3.28;;
23567;SDS011;11962;50.838;4.430;2023-02-01T11:31:09;11.30;;;2.53;;
23567;SDS011;11962;50.838;4.430;2023-02-01T11:33:38;12.68;;;2.72;;
23567;SDS011;11962;50.838;4.430;2023-02-01T11:36:12;14.23;;;2.67;;
23567;SDS011;11962;50.838;4.430;2023-02-01T11:38:45;9.68;;;2.40;;
23567;SDS011;11962;50.838;4.430;2023-02-01T11:41:32;9.18;;;2.70;;
23567;SDS011;11962;50.838;4.430;2023-02-01T11:44:01;16.63;;;3.15;;
23567;SDS011;11962;50.838;4.430;2023-02-01T11:46:40;13.15;;;2.85;;
23567;SDS011;11962;50.838;4.430;2023-02-01T11:49:39;14.15;;;2.85;;
23567;SDS011;11962;50.838;4.430;2023-02-01T11:52:12;12.57;;;3.00;;
23567;SDS011;11962;50.838;4.430;2023-02-01T11:55:03;13.85;;;3.20;;
23567;SDS011;11962;50.838;4.430;2023-02-01T12:00:29;14.15;;;3.17;;
23567;SDS011;11962;50.838;4.430;2023-02-01T12:06:05;8.70;;;2.63;;
23567;SDS011;11962;50.838;4.430;2023-02-01T12:11:48;10.30;;;2.85;;
23567;SDS011;11962;50.838;4.430;2023-02-01T12:17:42;13.00;;;2.60;;
23567;SDS011;11962;50.838;4.430;2023-02-01T12:51:11;7.85;;;2.40;;
23567;SDS011;11962;50.838;4.430;2023-02-01T12:56:23;11.68;;;1.70;;
23567;SDS011;11962;50.838;4.430;2023-02-01T12:58:55;9.68;;;2.30;;
23567;SDS011;11962;50.838;4.430;2023-02-01T13:04:37;10.68;;;2.25;;
23567;SDS011;11962;50.838;4.430;2023-02-01T13:07:35;12.70;;;1.95;;
23567;SDS011;11962;50.838;4.430;2023-02-01T13:13:14;8.52;;;2.25;;
23567;SDS011;11962;50.838;4.430;2023-02-01T13:18:32;7.07;;;2.05;;
23567;SDS011;11962;50.838;4.430;2023-02-01T13:23:30;8.52;;;2.05;;
23567;SDS011;11962;50.838;4.430;2023-02-01T13:26:13;11.77;;;2.00;;
23567;SDS011;11962;50.838;4.430;2023-02-01T13:31:29;8.25;;;1.75;;
23567;SDS011;11962;50.838;4.430;2023-02-01T13:39:39;8.32;;;1.88;;
23567;SDS011;11962;50.838;4.430;2023-02-01T14:17:30;13.70;;;1.90;;
23567;SDS011;11962;50.838;4.430;2023-02-01T14:19:36;5.95;;;1.60;;
23567;SDS011;11962;50.838;4.430;2023-02-01T14:25:03;16.33;;;2.97;;
23567;SDS011;11962;50.838;4.430;2023-02-01T14:27:40;10.75;;;2.10;;
23567;SDS011;11962;50.838;4.430;2023-02-01T14:30:07;12.82;;;2.15;;
23567;SDS011;11962;50.838;4.430;2023-02-01T14:32:40;12.98;;;1.98;;
23567;SDS011;11962;50.838;4.430;2023-02-01T14:35:21;12.13;;;2.40;;
23567;SDS011;11962;50.838;4.430;2023-02-01T14:37:53;9.32;;;2.10;;
23567;SDS011;11962;50.838;4.430;2023-02-01T14:40:29;10.48;;;1.73;;
23567;SDS011;11962;50.838;4.430;2023-02-01T14:42:55;14.98;;;3.00;;
23567;SDS011;11962;50.838;4.430;2023-02-01T14:52:50;12.13;;;2.53;;
23567;SDS011;11962;50.838;4.430;2023-02-01T15:01:03;13.18;;;2.75;;
23567;SDS011;11962;50.838;4.430;2023-02-01T15:09:15;13.50;;;2.55;;
23567;SDS011;11962;50.838;4.430;2023-02-01T15:11:56;17.65;;;2.85;;
23567;SDS011;11962;50.838;4.430;2023-02-01T15:14:29;12.20;;;2.88;;
23567;SDS011;11962;50.838;4.430;2023-02-01T15:17:00;11.68;;;2.80;;
23567;SDS011;11962;50.838;4.430;2023-02-01T15:19:27;14.20;;;2.63;;
23567;SDS011;11962;50.838;4.430;2023-02-01T15:21:56;11.85;;;2.72;;
23567;SDS011;11962;50.838;4.430;2023-02-01T15:24:24;11.97;;;2.93;;
23567;SDS011;11962;50.838;4.430;2023-02-01T15:26:54;14.23;;;2.90;;
23567;SDS011;11962;50.838;4.430;2023-02-01T15:29:26;17.10;;;2.92;;
23567;SDS011;11962;50.838;4.430;2023-02-01T15:31:57;15.82;;;3.15;;
23567;SDS011;11962;50.838;4.430;2023-02-01T15:34:23;16.40;;;2.85;;
23567;SDS011;11962;50.838;4.430;2023-02-01T15:37:11;13.35;;;2.42;;
23567;SDS011;11962;50.838;4.430;2023-02-01T15:40:02;14.23;;;2.58;;
23567;SDS011;11962;50.838;4.430;2023-02-01T15:42:30;14.73;;;2.92;;
23567;SDS011;11962;50.838;4.430;2023-02-01T15:44:56;15.70;;;3.13;;
23567;SDS011;11962;50.838;4.430;2023-02-01T15:47:26;15.00;;;2.83;;
23567;SDS011;11962;50.838;4.430;2023-02-01T15:49:57;17.83;;;2.78;;
23567;SDS011;11962;50.838;4.430;2023-02-01T15:52:25;15.23;;;3.00;;
23567;SDS011;11962;50.838;4.430;2023-02-01T15:55:00;21.52;;;3.42;;
23567;SDS011;11962;50.838;4.430;2023-02-01T15:57:36;11.48;;;2.45;;
23567;SDS011;11962;50.838;4.430;2023-02-01T16:00:06;12.57;;;2.55;;
23567;SDS011;11962;50.838;4.430;2023-02-01T16:02:53;14.93;;;2.80;;
23567;SDS011;11962;50.838;4.430;2023-02-01T16:05:39;13.82;;;2.78;;
23567;SDS011;11962;50.838;4.430;2023-02-01T16:10:47;11.43;;;2.95;;
23567;SDS011;11962;50.838;4.430;2023-02-01T16:13:16;18.55;;;3.72;;
23567;SDS011;11962;50.838;4.430;2023-02-01T16:15:43;14.10;;;3.00;;
23567;SDS011;11962;50.838;4.430;2023-02-01T16:18:11;14.60;;;3.28;;
23567;SDS011;11962;50.838;4.430;2023-02-01T16:20:38;17.48;;;3.03;;
23567;SDS011;11962;50.838;4.430;2023-02-01T16:23:05;15.63;;;3.15;;
23567;SDS011;11962;50.838;4.430;2023-02-01T16:25:32;17.50;;;3.10;;
23567;SDS011;11962;50.838;4.430;2023-02-01T16:27:58;29.65;;;2.80;;
23567;SDS011;11962;50.838;4.430;2023-02-01T16:30:23;17.90;;;3.15;;
23567;SDS011;11962;50.838;4.430;2023-02-01T16:32:56;18.08;;;3.50;;
23567;SDS011;11962;50.838;4.430;2023-02-01T16:35:36;12.50;;;2.97;;
23567;SDS011;11962;50.838;4.430;2023-02-01T16:38:09;18.27;;;3.03;;
23567;SDS011;11962;50.838;4.430;2023-02-01T16:40:38;14.65;;;2.75;;
23567;SDS011;11962;50.838;4.430;2023-02-01T16:43:10;15.13;;;3.13;;
23567;SDS011;11962;50.838;4.430;2023-02-01T16:45:38;20.92;;;3.67;;
23567;SDS011;11962;50.838;4.430;2023-02-01T16:48:05;13.10;;;3.30;;
23567;SDS011;11962;50.838;4.430;2023-02-01T16:50:32;14.20;;;2.65;;
23567;SDS011;11962;50.838;4.430;2023-02-01T16:52:58;15.93;;;3.40;;
23567;SDS011;11962;50.838;4.430;2023-02-01T16:55:26;13.85;;;2.97;;
23567;SDS011;11962;50.838;4.430;2023-02-01T16:57:52;16.38;;;3.47;;
23567;SDS011;11962;50.838;4.430;2023-02-01T17:00:18;14.38;;;3.35;;
23567;SDS011;11962;50.838;4.430;2023-02-01T17:02:45;21.35;;;3.83;;
23567;SDS011;11962;50.838;4.430;2023-02-01T17:05:11;15.68;;;3.13;;
23567;SDS011;11962;50.838;4.430;2023-02-01T17:07:37;16.08;;;3.40;;
23567;SDS011;11962;50.838;4.430;2023-02-01T17:10:05;18.85;;;2.97;;
23567;SDS011;11962;50.838;4.430;2023-02-01T17:12:42;17.90;;;3.27;;
23567;SDS011;11962;50.838;4.430;2023-02-01T17:15:08;18.88;;;3.22;;
23567;SDS011;11962;50.838;4.430;2023-02-01T17:17:36;22.08;;;4.35;;
23567;SDS011;11962;50.838;4.430;2023-02-01T17:20:04;11.20;;;2.97;;
23567;SDS011;11962;50.838;4.430;2023-02-01T17:22:31;26.63;;;4.40;;
23567;SDS011;11962;50.838;4.430;2023-02-01T17:24:57;23.33;;;3.50;;
23567;SDS011;11962;50.838;4.430;2023-02-01T17:27:22;18.55;;;3.60;;
23567;SDS011;11962;50.838;4.430;2023-02-01T17:29:48;14.18;;;3.30;;
23567;SDS011;11962;50.838;4.430;2023-02-01T17:32:17;16.75;;;4.18;;
23567;SDS011;11962;50.838;4.430;2023-02-01T17:34:45;19.13;;;3.42;;
23567;SDS011;11962;50.838;4.430;2023-02-01T17:37:31;12.52;;;3.50;;
23567;SDS011;11962;50.838;4.430;2023-02-01T17:39:59;25.47;;;4.73;;
23567;SDS011;11962;50.838;4.430;2023-02-01T17:42:26;21.42;;;3.85;;
23567;SDS011;11962;50.838;4.430;2023-02-01T17:44:57;18.92;;;4.20;;
23567;SDS011;11962;50.838;4.430;2023-02-01T17:47:25;21.67;;;3.58;;
23567;SDS011;11962;50.838;4.430;2023-02-01T17:49:51;21.90;;;3.83;;
23567;SDS011;11962;50.838;4.430;2023-02-01T17:52:20;20.83;;;4.65;;
23567;SDS011;11962;50.838;4.430;2023-02-01T17:54:48;27.88;;;4.60;;
23567;SDS011;11962;50.838;4.430;2023-02-01T17:57:17;17.90;;;3.67;;
23567;SDS011;11962;50.838;4.430;2023-02-01T17:59:43;18.98;;;4.00;;
23567;SDS011;11962;50.838;4.430;2023-02-01T18:02:22;18.30;;;4.40;;
23567;SDS011;11962;50.838;4.430;2023-02-01T18:04:49;18.08;;;3.95;;
23567;SDS011;11962;50.838;4.430;2023-02-01T18:07:16;17.33;;;4.75;;
23567;SDS011;11962;50.838;4.430;2023-02-01T18:09:43;17.20;;;4.30;;
23567;SDS011;11962;50.838;4.430;2023-02-01T18:12:14;16.90;;;4.07;;
23567;SDS011;11962;50.838;4.430;2023-02-01T18:14:47;22.88;;;4.78;;
23567;SDS011;11962;50.838;4.430;2023-02-01T18:17:13;17.38;;;4.32;;